sensor_id;sensor_type;location;lat;lon;timestamp;pressure;altitude;pressure_sealevel;temperature;humidity
7105;BME280;3594;42.152;24.714;2023-04-09T00:01:53;-24030.25;;;7.64;nan
7105;BME280;3594;42.152;24.714;2023-04-09T00:04:19;-24029.41;;;7.61;nan
7105;BME280;3594;42.152;24.714;2023-04-09T00:06:46;-24038.88;;;7.94;nan
7105;BME280;3594;42.152;24.714;2023-04-09T00:09:11;-24037.19;;;7.88;nan
7105;BME280;3594;42.152;24.714;2023-04-09T00:11:37;-24036.06;;;7.84;nan
7105;BME280;3594;42.152;24.714;2023-04-09T00:14:02;-24036.19;;;7.85;nan
7105;BME280;3594;42.152;24.714;2023-04-09T00:16:28;-24028.81;;;7.59;nan
7105;BME280;3594;42.152;24.714;2023-04-09T00:18:53;-24037.19;;;7.88;nan
7105;BME280;3594;42.152;24.714;2023-04-09T00:21:18;-24022.16;;;7.35;nan
7105;BME280;3594;42.152;24.714;2023-04-09T00:23:44;-24033.50;;;7.75;nan
7105;BME280;3594;42.152;24.714;2023-04-09T00:26:10;-24022.88;;;7.37;nan
7105;BME280;3594;42.152;24.714;2023-04-09T00:28:35;-24023.16;;;7.38;nan
7105;BME280;3594;42.152;24.714;2023-04-09T00:31:01;-24024.44;;;7.43;nan
7105;BME280;3594;42.152;24.714;2023-04-09T00:33:27;-24020.03;;;7.27;nan
7105;BME280;3594;42.152;24.714;2023-04-09T00:35:52;-24023.31;;;7.39;nan
7105;BME280;3594;42.152;24.714;2023-04-09T00:38:18;-24028.41;;;7.57;nan
7105;BME280;3594;42.152;24.714;2023-04-09T00:40:48;-24027.28;;;7.53;nan
7105;BME280;3594;42.152;24.714;2023-04-09T00:43:14;-24026.56;;;7.50;nan
7105;BME280;3594;42.152;24.714;2023-04-09T00:45:39;-24014.78;;;7.08;nan
7105;BME280;3594;42.152;24.714;2023-04-09T00:48:04;-24020.03;;;7.27;nan
7105;BME280;3594;42.152;24.714;2023-04-09T00:50:31;-24011.81;;;6.98;nan
7105;BME280;3594;42.152;24.714;2023-04-09T00:52:56;-24009.97;;;6.91;nan
7105;BME280;3594;42.152;24.714;2023-04-09T00:55:22;-24022.72;;;7.37;nan
7105;BME280;3594;42.152;24.714;2023-04-09T00:57:47;-24019.63;;;7.26;nan
7105;BME280;3594;42.152;24.714;2023-04-09T01:00:13;-24008.69;;;6.87;nan
7105;BME280;3594;42.152;24.714;2023-04-09T01:02:39;-24018.06;;;7.20;nan
7105;BME280;3594;42.152;24.714;2023-04-09T01:05:05;-24017.91;;;7.20;nan
7105;BME280;3594;42.152;24.714;2023-04-09T01:10:44;-24013.38;;;7.03;nan
7105;BME280;3594;42.152;24.714;2023-04-09T01:13:15;-24007.56;;;6.83;nan
7105;BME280;3594;42.152;24.714;2023-04-09T01:15:48;-24008.97;;;6.88;nan
7105;BME280;3594;42.152;24.714;2023-04-09T01:18:37;-24012.94;;;7.02;nan
7105;BME280;3594;42.152;24.714;2023-04-09T01:21:07;-24003.44;;;6.68;nan
7105;BME280;3594;42.152;24.714;2023-04-09T01:23:46;-24001.31;;;6.60;nan
7105;BME280;3594;42.152;24.714;2023-04-09T01:28:56;-24000.59;;;6.58;nan
7105;BME280;3594;42.152;24.714;2023-04-09T01:31:30;-23998.75;;;6.51;nan
7105;BME280;3594;42.152;24.714;2023-04-09T01:33:58;-24005.84;;;6.77;nan
7105;BME280;3594;42.152;24.714;2023-04-09T01:36:25;-24005.16;;;6.74;nan
7105;BME280;3594;42.152;24.714;2023-04-09T01:38:52;-23991.94;;;6.27;nan
7105;BME280;3594;42.152;24.714;2023-04-09T01:41:20;-23993.50;;;6.33;nan
7105;BME280;3594;42.152;24.714;2023-04-09T01:43:48;-24001.47;;;6.61;nan
7105;BME280;3594;42.152;24.714;2023-04-09T01:46:15;-23996.50;;;6.43;nan
7105;BME280;3594;42.152;24.714;2023-04-09T01:48:42;-23988.81;;;6.16;nan
7105;BME280;3594;42.152;24.714;2023-04-09T01:51:07;-24003.72;;;6.69;nan
7105;BME280;3594;42.152;24.714;2023-04-09T01:53:33;-23995.78;;;6.41;nan
7105;BME280;3594;42.152;24.714;2023-04-09T01:55:59;-24000.75;;;6.58;nan
7105;BME280;3594;42.152;24.714;2023-04-09T01:58:26;-23998.34;;;6.50;nan
7105;BME280;3594;42.152;24.714;2023-04-09T02:01:15;-23990.53;;;6.22;nan
7105;BME280;3594;42.152;24.714;2023-04-09T02:03:45;-24005.72;;;6.76;nan
7105;BME280;3594;42.152;24.714;2023-04-09T02:06:24;-24004.88;;;6.73;nan
7105;BME280;3594;42.152;24.714;2023-04-09T02:08:53;-23997.91;;;6.48;nan
7105;BME280;3594;42.152;24.714;2023-04-09T02:11:20;-24008.84;;;6.87;nan
7105;BME280;3594;42.152;24.714;2023-04-09T02:13:48;-23995.78;;;6.41;nan
7105;BME280;3594;42.152;24.714;2023-04-09T02:16:14;-23998.91;;;6.52;nan
7105;BME280;3594;42.152;24.714;2023-04-09T02:18:40;-24003.31;;;6.68;nan
7105;BME280;3594;42.152;24.714;2023-04-09T02:21:06;-23997.75;;;6.48;nan
7105;BME280;3594;42.152;24.714;2023-04-09T02:23:31;-23996.50;;;6.43;nan
7105;BME280;3594;42.152;24.714;2023-04-09T02:25:58;-23994.78;;;6.37;nan
7105;BME280;3594;42.152;24.714;2023-04-09T02:28:24;-23997.63;;;6.47;nan
7105;BME280;3594;42.152;24.714;2023-04-09T02:30:49;-23995.34;;;6.39;nan
7105;BME280;3594;42.152;24.714;2023-04-09T02:33:14;-24007.56;;;6.83;nan
7105;BME280;3594;42.152;24.714;2023-04-09T02:35:40;-24006.28;;;6.78;nan
7105;BME280;3594;42.152;24.714;2023-04-09T02:38:07;-24004.56;;;6.72;nan
7105;BME280;3594;42.152;24.714;2023-04-09T02:40:38;-24003.44;;;6.68;nan
7105;BME280;3594;42.152;24.714;2023-04-09T02:43:05;-24009.13;;;6.88;nan
7105;BME280;3594;42.152;24.714;2023-04-09T02:45:30;-24006.44;;;6.79;nan
7105;BME280;3594;42.152;24.714;2023-04-09T02:47:55;-23995.91;;;6.41;nan
7105;BME280;3594;42.152;24.714;2023-04-09T02:50:22;-24007.00;;;6.81;nan
7105;BME280;3594;42.152;24.714;2023-04-09T02:52:47;-24009.25;;;6.89;nan
7105;BME280;3594;42.152;24.714;2023-04-09T02:55:13;-24008.25;;;6.85;nan
7105;BME280;3594;42.152;24.714;2023-04-09T02:57:39;-23993.94;;;6.34;nan
7105;BME280;3594;42.152;24.714;2023-04-09T03:00:04;-23998.34;;;6.50;nan
7105;BME280;3594;42.152;24.714;2023-04-09T03:02:30;-23991.94;;;6.27;nan
7105;BME280;3594;42.152;24.714;2023-04-09T03:04:55;-23999.31;;;6.53;nan
7105;BME280;3594;42.152;24.714;2023-04-09T03:07:21;-23993.22;;;6.32;nan
7105;BME280;3594;42.152;24.714;2023-04-09T03:09:47;-24002.03;;;6.63;nan
7105;BME280;3594;42.152;24.714;2023-04-09T03:12:12;-23995.22;;;6.39;nan
7105;BME280;3594;42.152;24.714;2023-04-09T03:14:38;-24000.03;;;6.56;nan
7105;BME280;3594;42.152;24.714;2023-04-09T03:17:03;-24002.16;;;6.63;nan
7105;BME280;3594;42.152;24.714;2023-04-09T03:19:29;-24000.31;;;6.57;nan
7105;BME280;3594;42.152;24.714;2023-04-09T03:21:55;-23999.31;;;6.53;nan
7105;BME280;3594;42.152;24.714;2023-04-09T03:24:20;-23993.78;;;6.34;nan
7105;BME280;3594;42.152;24.714;2023-04-09T03:26:46;-23989.97;;;6.20;nan
7105;BME280;3594;42.152;24.714;2023-04-09T03:29:11;-23996.22;;;6.42;nan
7105;BME280;3594;42.152;24.714;2023-04-09T03:31:36;-23993.09;;;6.31;nan
7105;BME280;3594;42.152;24.714;2023-04-09T03:34:02;-24004.56;;;6.72;nan
7105;BME280;3594;42.152;24.714;2023-04-09T03:36:27;-23995.63;;;6.40;nan
7105;BME280;3594;42.152;24.714;2023-04-09T03:38:53;-23990.66;;;6.22;nan
7105;BME280;3594;42.152;24.714;2023-04-09T03:41:18;-23992.94;;;6.31;nan
7105;BME280;3594;42.152;24.714;2023-04-09T03:43:43;-23997.47;;;6.47;nan
7105;BME280;3594;42.152;24.714;2023-04-09T03:46:15;-23999.91;;;6.55;nan
7105;BME280;3594;42.152;24.714;2023-04-09T03:48:41;-23995.63;;;6.40;nan
7105;BME280;3594;42.152;24.714;2023-04-09T03:51:13;-23992.38;;;6.29;nan
7105;BME280;3594;42.152;24.714;2023-04-09T03:53:40;-23998.75;;;6.51;nan
7105;BME280;3594;42.152;24.714;2023-04-09T03:56:06;-23994.78;;;6.37;nan
7105;BME280;3594;42.152;24.714;2023-04-09T03:58:32;-24002.03;;;6.63;nan
7105;BME280;3594;42.152;24.714;2023-04-09T04:00:57;-24001.19;;;6.60;nan
7105;BME280;3594;42.152;24.714;2023-04-09T04:03:22;-23995.50;;;6.40;nan
7105;BME280;3594;42.152;24.714;2023-04-09T04:05:48;-24004.28;;;6.71;nan
7105;BME280;3594;42.152;24.714;2023-04-09T04:08:13;-24004.44;;;6.72;nan
7105;BME280;3594;42.152;24.714;2023-04-09T04:10:39;-24005.44;;;6.75;nan
7105;BME280;3594;42.152;24.714;2023-04-09T04:13:07;-24011.25;;;6.96;nan
7105;BME280;3594;42.152;24.714;2023-04-09T04:15:35;-24010.81;;;6.94;nan
7105;BME280;3594;42.152;24.714;2023-04-09T04:18:03;-24009.53;;;6.90;nan
7105;BME280;3594;42.152;24.714;2023-04-09T04:20:31;-24011.81;;;6.98;nan
7105;BME280;3594;42.152;24.714;2023-04-09T04:22:57;-24009.41;;;6.89;nan
7105;BME280;3594;42.152;24.714;2023-04-09T04:25:22;-24011.66;;;6.97;nan
7105;BME280;3594;42.152;24.714;2023-04-09T04:27:48;-24013.50;;;7.04;nan
7105;BME280;3594;42.152;24.714;2023-04-09T04:30:13;-24006.84;;;6.80;nan
7105;BME280;3594;42.152;24.714;2023-04-09T04:32:39;-24008.00;;;6.84;nan
7105;BME280;3594;42.152;24.714;2023-04-09T04:35:04;-24015.06;;;7.09;nan
7105;BME280;3594;42.152;24.714;2023-04-09T04:37:30;-24016.34;;;7.14;nan
7105;BME280;3594;42.152;24.714;2023-04-09T04:39:55;-24018.19;;;7.21;nan
7105;BME280;3594;42.152;24.714;2023-04-09T04:42:21;-24010.69;;;6.94;nan
7105;BME280;3594;42.152;24.714;2023-04-09T04:44:47;-24015.66;;;7.12;nan
7105;BME280;3594;42.152;24.714;2023-04-09T04:47:12;-24020.88;;;7.30;nan
7105;BME280;3594;42.152;24.714;2023-04-09T04:49:38;-24020.03;;;7.27;nan
7105;BME280;3594;42.152;24.714;2023-04-09T04:52:04;-24014.50;;;7.07;nan
7105;BME280;3594;42.152;24.714;2023-04-09T04:54:29;-24016.78;;;7.16;nan
7105;BME280;3594;42.152;24.714;2023-04-09T04:56:55;-24016.34;;;7.14;nan
7105;BME280;3594;42.152;24.714;2023-04-09T04:59:21;-24026.84;;;7.51;nan
7105;BME280;3594;42.152;24.714;2023-04-09T05:01:46;-24030.66;;;7.65;nan
7105;BME280;3594;42.152;24.714;2023-04-09T05:04:11;-24024.72;;;7.44;nan
7105;BME280;3594;42.152;24.714;2023-04-09T05:06:37;-24021.88;;;7.34;nan
7105;BME280;3594;42.152;24.714;2023-04-09T05:09:02;-24033.22;;;7.74;nan
7105;BME280;3594;42.152;24.714;2023-04-09T05:11:28;-24035.47;;;7.82;nan
7105;BME280;3594;42.152;24.714;2023-04-09T05:13:53;-24037.88;;;7.91;nan
7105;BME280;3594;42.152;24.714;2023-04-09T05:16:19;-24040.88;;;8.02;nan
7105;BME280;3594;42.152;24.714;2023-04-09T05:18:45;-24034.63;;;7.79;nan
7105;BME280;3594;42.152;24.714;2023-04-09T05:21:14;-24044.84;;;8.16;nan
7105;BME280;3594;42.152;24.714;2023-04-09T05:23:40;-24047.94;;;8.27;nan
7105;BME280;3594;42.152;24.714;2023-04-09T05:26:08;-24043.56;;;8.11;nan
7105;BME280;3594;42.152;24.714;2023-04-09T05:28:33;-24040.59;;;8.00;nan
7105;BME280;3594;42.152;24.714;2023-04-09T05:30:58;-24037.03;;;7.88;nan
7105;BME280;3594;42.152;24.714;2023-04-09T05:33:24;-24032.94;;;7.73;nan
7105;BME280;3594;42.152;24.714;2023-04-09T05:35:49;-24030.38;;;7.64;nan
7105;BME280;3594;42.152;24.714;2023-04-09T05:38:15;-24036.06;;;7.84;nan
7105;BME280;3594;42.152;24.714;2023-04-09T05:40:41;-24026.69;;;7.51;nan
7105;BME280;3594;42.152;24.714;2023-04-09T05:43:08;-24039.16;;;7.95;nan
7105;BME280;3594;42.152;24.714;2023-04-09T05:45:33;-24040.31;;;7.99;nan
7105;BME280;3594;42.152;24.714;2023-04-09T05:47:59;-24040.16;;;7.99;nan
7105;BME280;3594;42.152;24.714;2023-04-09T05:50:24;-24041.72;;;8.05;nan
7105;BME280;3594;42.152;24.714;2023-04-09T05:52:49;-24044.00;;;8.13;nan
7105;BME280;3594;42.152;24.714;2023-04-09T05:55:15;-24043.69;;;8.12;nan
7105;BME280;3594;42.152;24.714;2023-04-09T05:57:41;-24044.00;;;8.13;nan
7105;BME280;3594;42.152;24.714;2023-04-09T06:00:07;-24053.19;;;8.46;nan
7105;BME280;3594;42.152;24.714;2023-04-09T06:02:32;-24054.88;;;8.52;nan
7105;BME280;3594;42.152;24.714;2023-04-09T06:04:58;-24053.47;;;8.47;nan
7105;BME280;3594;42.152;24.714;2023-04-09T06:07:25;-24064.78;;;8.87;nan
7105;BME280;3594;42.152;24.714;2023-04-09T06:09:51;-24062.09;;;8.77;nan
7105;BME280;3594;42.152;24.714;2023-04-09T06:12:16;-24061.81;;;8.76;nan
7105;BME280;3594;42.152;24.714;2023-04-09T06:14:42;-24073.56;;;9.18;nan
7105;BME280;3594;42.152;24.714;2023-04-09T06:17:07;-24083.88;;;9.55;nan
7105;BME280;3594;42.152;24.714;2023-04-09T06:19:33;-24094.06;;;9.92;nan
7105;BME280;3594;42.152;24.714;2023-04-09T06:21:58;-24087.28;;;9.67;nan
7105;BME280;3594;42.152;24.714;2023-04-09T06:24:24;-24100.25;;;10.14;nan
7105;BME280;3594;42.152;24.714;2023-04-09T06:26:49;-24111.00;;;10.52;nan
7105;BME280;3594;42.152;24.714;2023-04-09T06:29:14;-24106.47;;;10.36;nan
7105;BME280;3594;42.152;24.714;2023-04-09T06:31:40;-24093.47;;;9.90;nan
7105;BME280;3594;42.152;24.714;2023-04-09T06:34:06;-24098.84;;;10.09;nan
7105;BME280;3594;42.152;24.714;2023-04-09T06:36:32;-24090.66;;;9.80;nan
7105;BME280;3594;42.152;24.714;2023-04-09T06:38:57;-24073.72;;;9.19;nan
7105;BME280;3594;42.152;24.714;2023-04-09T06:41:23;-24082.47;;;9.50;nan
7105;BME280;3594;42.152;24.714;2023-04-09T06:43:50;-24073.41;;;9.18;nan
7105;BME280;3594;42.152;24.714;2023-04-09T06:46:16;-24080.06;;;9.42;nan
7105;BME280;3594;42.152;24.714;2023-04-09T06:48:44;-24082.19;;;9.49;nan
7105;BME280;3594;42.152;24.714;2023-04-09T06:51:10;-24079.91;;;9.41;nan
7105;BME280;3594;42.152;24.714;2023-04-09T06:53:37;-24077.66;;;9.33;nan
7105;BME280;3594;42.152;24.714;2023-04-09T06:56:02;-24078.22;;;9.35;nan
7105;BME280;3594;42.152;24.714;2023-04-09T06:58:28;-24069.03;;;9.02;nan
7105;BME280;3594;42.152;24.714;2023-04-09T07:00:53;-24071.59;;;9.11;nan
7105;BME280;3594;42.152;24.714;2023-04-09T07:03:19;-24077.38;;;9.32;nan
7105;BME280;3594;42.152;24.714;2023-04-09T07:05:45;-24085.16;;;9.60;nan
7105;BME280;3594;42.152;24.714;2023-04-09T07:08:10;-24077.25;;;9.31;nan
7105;BME280;3594;42.152;24.714;2023-04-09T07:10:36;-24088.53;;;9.72;nan
7105;BME280;3594;42.152;24.714;2023-04-09T07:13:02;-24085.44;;;9.61;nan
7105;BME280;3594;42.152;24.714;2023-04-09T07:15:27;-24092.22;;;9.85;nan
7105;BME280;3594;42.152;24.714;2023-04-09T07:17:52;-24115.50;;;10.69;nan
7105;BME280;3594;42.152;24.714;2023-04-09T07:20:18;-24113.41;;;10.61;nan
7105;BME280;3594;42.152;24.714;2023-04-09T07:22:43;-24120.88;;;10.88;nan
7105;BME280;3594;42.152;24.714;2023-04-09T07:25:09;-24115.66;;;10.69;nan
7105;BME280;3594;42.152;24.714;2023-04-09T07:27:34;-24124.41;;;11.00;nan
7105;BME280;3594;42.152;24.714;2023-04-09T07:30:00;-24132.28;;;11.29;nan
7105;BME280;3594;42.152;24.714;2023-04-09T07:32:26;-24153.84;;;12.06;nan
7105;BME280;3594;42.152;24.714;2023-04-09T07:34:55;-24145.97;;;11.78;nan
7105;BME280;3594;42.152;24.714;2023-04-09T07:37:21;-24154.13;;;12.07;nan
7105;BME280;3594;42.152;24.714;2023-04-09T07:39:48;-24123.84;;;10.98;nan
7105;BME280;3594;42.152;24.714;2023-04-09T07:42:13;-24125.66;;;11.05;nan
7105;BME280;3594;42.152;24.714;2023-04-09T07:44:39;-24136.94;;;11.45;nan
7105;BME280;3594;42.152;24.714;2023-04-09T07:47:06;-24143.69;;;11.70;nan
7105;BME280;3594;42.152;24.714;2023-04-09T07:49:32;-24131.31;;;11.25;nan
7105;BME280;3594;42.152;24.714;2023-04-09T07:51:58;-24129.75;;;11.20;nan
7105;BME280;3594;42.152;24.714;2023-04-09T07:54:24;-24125.94;;;11.06;nan
7105;BME280;3594;42.152;24.714;2023-04-09T07:56:50;-24139.47;;;11.55;nan
7105;BME280;3594;42.152;24.714;2023-04-09T07:59:16;-24154.13;;;12.07;nan
7105;BME280;3594;42.152;24.714;2023-04-09T08:01:42;-24166.22;;;12.51;nan
7105;BME280;3594;42.152;24.714;2023-04-09T08:04:10;-24158.78;;;12.24;nan
7105;BME280;3594;42.152;24.714;2023-04-09T08:06:37;-24167.78;;;12.56;nan
7105;BME280;3594;42.152;24.714;2023-04-09T08:09:03;-24151.88;;;11.99;nan
7105;BME280;3594;42.152;24.714;2023-04-09T08:11:28;-24161.72;;;12.34;nan
7105;BME280;3594;42.152;24.714;2023-04-09T08:13:54;-24183.81;;;13.14;nan
7105;BME280;3594;42.152;24.714;2023-04-09T08:16:20;-24203.03;;;13.83;nan
7105;BME280;3594;42.152;24.714;2023-04-09T08:18:47;-24210.19;;;14.09;nan
7105;BME280;3594;42.152;24.714;2023-04-09T08:21:13;-24217.22;;;14.34;nan
7105;BME280;3594;42.152;24.714;2023-04-09T08:23:39;-24223.53;;;14.57;nan
7105;BME280;3594;42.152;24.714;2023-04-09T08:26:04;-24227.59;;;14.72;nan
7105;BME280;3594;42.152;24.714;2023-04-09T08:28:30;-24231.94;;;14.87;nan
7105;BME280;3594;42.152;24.714;2023-04-09T08:30:56;-24238.94;;;15.13;nan
7105;BME280;3594;42.152;24.714;2023-04-09T08:33:21;-24233.91;;;14.94;nan
7105;BME280;3594;42.152;24.714;2023-04-09T08:35:47;-24232.94;;;14.91;nan
7105;BME280;3594;42.152;24.714;2023-04-09T08:38:12;-24224.78;;;14.62;nan
7105;BME280;3594;42.152;24.714;2023-04-09T08:40:39;-24205.84;;;13.93;nan
7105;BME280;3594;42.152;24.714;2023-04-09T08:43:05;-24198.28;;;13.66;nan
7105;BME280;3594;42.152;24.714;2023-04-09T08:45:31;-24199.41;;;13.70;nan
7105;BME280;3594;42.152;24.714;2023-04-09T08:47:57;-24212.16;;;14.16;nan
7105;BME280;3594;42.152;24.714;2023-04-09T08:50:28;-24221.00;;;14.48;nan
7105;BME280;3594;42.152;24.714;2023-04-09T08:52:55;-24225.78;;;14.65;nan
7105;BME280;3594;42.152;24.714;2023-04-09T08:55:22;-24241.06;;;15.20;nan
7105;BME280;3594;42.152;24.714;2023-04-09T08:57:48;-24219.88;;;14.44;nan
7105;BME280;3594;42.152;24.714;2023-04-09T09:00:13;-24236.84;;;15.05;nan
7105;BME280;3594;42.152;24.714;2023-04-09T09:03:02;-24263.88;;;16.03;nan
7105;BME280;3594;42.152;24.714;2023-04-09T09:08:00;-24259.38;;;15.86;nan
7105;BME280;3594;42.152;24.714;2023-04-09T09:10:43;-24269.88;;;16.24;nan
7105;BME280;3594;42.152;24.714;2023-04-09T09:15:41;-24263.88;;;16.03;nan
7105;BME280;3594;42.152;24.714;2023-04-09T09:18:07;-24259.13;;;15.85;nan
7105;BME280;3594;42.152;24.714;2023-04-09T09:20:32;-24276.72;;;16.49;nan
7105;BME280;3594;42.152;24.714;2023-04-09T09:22:58;-24268.47;;;16.19;nan
7105;BME280;3594;42.152;24.714;2023-04-09T09:25:24;-24257.44;;;15.79;nan
7105;BME280;3594;42.152;24.714;2023-04-09T09:27:51;-24258.56;;;15.83;nan
7105;BME280;3594;42.152;24.714;2023-04-09T09:30:35;-24245.66;;;15.37;nan
7105;BME280;3594;42.152;24.714;2023-04-09T09:33:08;-24244.00;;;15.31;nan
7105;BME280;3594;42.152;24.714;2023-04-09T09:38:13;-24219.88;;;14.44;nan
7105;BME280;3594;42.152;24.714;2023-04-09T09:40:40;-24226.06;;;14.66;nan
7105;BME280;3594;42.152;24.714;2023-04-09T09:43:06;-24220.03;;;14.44;nan
7105;BME280;3594;42.152;24.714;2023-04-09T09:45:32;-24229.69;;;14.79;nan
7105;BME280;3594;42.152;24.714;2023-04-09T09:47:57;-24220.72;;;14.47;nan
7105;BME280;3594;42.152;24.714;2023-04-09T09:50:23;-24213.56;;;14.21;nan
7105;BME280;3594;42.152;24.714;2023-04-09T09:52:53;-24223.66;;;14.57;nan
7105;BME280;3594;42.152;24.714;2023-04-09T09:55:24;-24224.94;;;14.62;nan
7105;BME280;3594;42.152;24.714;2023-04-09T09:57:51;-24244.84;;;15.34;nan
7105;BME280;3594;42.152;24.714;2023-04-09T10:00:19;-24232.94;;;14.91;nan
7105;BME280;3594;42.152;24.714;2023-04-09T10:03:12;-24227.88;;;14.73;nan
7105;BME280;3594;42.152;24.714;2023-04-09T10:05:39;-24216.09;;;14.30;nan
7105;BME280;3594;42.152;24.714;2023-04-09T10:08:05;-24227.03;;;14.70;nan
7105;BME280;3594;42.152;24.714;2023-04-09T10:10:32;-24214.28;;;14.24;nan
7105;BME280;3594;42.152;24.714;2023-04-09T10:12:58;-24214.84;;;14.26;nan
7105;BME280;3594;42.152;24.714;2023-04-09T10:15:25;-24212.88;;;14.19;nan
7105;BME280;3594;42.152;24.714;2023-04-09T10:17:53;-24209.78;;;14.07;nan
7105;BME280;3594;42.152;24.714;2023-04-09T10:20:25;-24206.69;;;13.96;nan
7105;BME280;3594;42.152;24.714;2023-04-09T10:22:52;-24209.78;;;14.07;nan
7105;BME280;3594;42.152;24.714;2023-04-09T10:25:18;-24203.47;;;13.85;nan
7105;BME280;3594;42.152;24.714;2023-04-09T10:27:43;-24214.56;;;14.25;nan
7105;BME280;3594;42.152;24.714;2023-04-09T10:30:33;-24191.13;;;13.40;nan
7105;BME280;3594;42.152;24.714;2023-04-09T10:33:28;-24205.16;;;13.91;nan
7105;BME280;3594;42.152;24.714;2023-04-09T10:35:55;-24206.69;;;13.96;nan
7105;BME280;3594;42.152;24.714;2023-04-09T10:38:37;-24213.72;;;14.22;nan
7105;BME280;3594;42.152;24.714;2023-04-09T10:41:32;-24214.00;;;14.23;nan
7105;BME280;3594;42.152;24.714;2023-04-09T10:43:58;-24214.41;;;14.24;nan
7105;BME280;3594;42.152;24.714;2023-04-09T10:46:25;-24213.72;;;14.22;nan
7105;BME280;3594;42.152;24.714;2023-04-09T10:51:36;-24214.13;;;14.23;nan
7105;BME280;3594;42.152;24.714;2023-04-09T10:54:04;-24208.53;;;14.03;nan
7105;BME280;3594;42.152;24.714;2023-04-09T10:56:30;-24208.66;;;14.03;nan
7105;BME280;3594;42.152;24.714;2023-04-09T10:58:56;-24220.31;;;14.45;nan
7105;BME280;3594;42.152;24.714;2023-04-09T11:01:21;-24228.84;;;14.76;nan
7105;BME280;3594;42.152;24.714;2023-04-09T11:04:06;-24224.38;;;14.60;nan
7105;BME280;3594;42.152;24.714;2023-04-09T11:06:35;-24220.72;;;14.47;nan
7105;BME280;3594;42.152;24.714;2023-04-09T11:09:01;-24229.13;;;14.77;nan
7105;BME280;3594;42.152;24.714;2023-04-09T11:11:29;-24227.31;;;14.71;nan
7105;BME280;3594;42.152;24.714;2023-04-09T11:13:58;-24233.91;;;14.94;nan
7105;BME280;3594;42.152;24.714;2023-04-09T11:16:28;-24239.50;;;15.15;nan
7105;BME280;3594;42.152;24.714;2023-04-09T11:18:53;-24240.91;;;15.20;nan
7105;BME280;3594;42.152;24.714;2023-04-09T11:21:20;-24228.56;;;14.75;nan
7105;BME280;3594;42.152;24.714;2023-04-09T11:23:52;-24234.19;;;14.95;nan
7105;BME280;3594;42.152;24.714;2023-04-09T11:26:23;-24229.13;;;14.77;nan
7105;BME280;3594;42.152;24.714;2023-04-09T11:28:49;-24241.47;;;15.22;nan
7105;BME280;3594;42.152;24.714;2023-04-09T11:31:14;-24233.75;;;14.94;nan
7105;BME280;3594;42.152;24.714;2023-04-09T11:33:45;-24229.28;;;14.78;nan
7105;BME280;3594;42.152;24.714;2023-04-09T11:36:11;-24218.75;;;14.40;nan
7105;BME280;3594;42.152;24.714;2023-04-09T11:38:36;-24228.16;;;14.74;nan
7105;BME280;3594;42.152;24.714;2023-04-09T11:41:03;-24224.78;;;14.62;nan
7105;BME280;3594;42.152;24.714;2023-04-09T11:43:28;-24205.28;;;13.91;nan
7105;BME280;3594;42.152;24.714;2023-04-09T11:45:54;-24228.84;;;14.76;nan
7105;BME280;3594;42.152;24.714;2023-04-09T11:48:20;-24238.53;;;15.11;nan
7105;BME280;3594;42.152;24.714;2023-04-09T11:50:47;-24236.44;;;15.03;nan
7105;BME280;3594;42.152;24.714;2023-04-09T11:53:20;-24235.44;;;15.00;nan
7105;BME280;3594;42.152;24.714;2023-04-09T11:55:50;-24245.13;;;15.35;nan
7105;BME280;3594;42.152;24.714;2023-04-09T11:58:16;-24245.25;;;15.35;nan
7105;BME280;3594;42.152;24.714;2023-04-09T12:00:42;-24245.53;;;15.36;nan
7105;BME280;3594;42.152;24.714;2023-04-09T12:03:09;-24245.38;;;15.36;nan
7105;BME280;3594;42.152;24.714;2023-04-09T12:05:34;-24258.41;;;15.83;nan
7105;BME280;3594;42.152;24.714;2023-04-09T12:08:02;-24246.09;;;15.38;nan
7105;BME280;3594;42.152;24.714;2023-04-09T12:10:31;-24230.69;;;14.83;nan
7105;BME280;3594;42.152;24.714;2023-04-09T12:13:01;-24231.09;;;14.84;nan
7105;BME280;3594;42.152;24.714;2023-04-09T12:15:31;-24247.63;;;15.44;nan
7105;BME280;3594;42.152;24.714;2023-04-09T12:17:57;-24250.03;;;15.53;nan
7105;BME280;3594;42.152;24.714;2023-04-09T12:20:36;-24230.97;;;14.84;nan
7105;BME280;3594;42.152;24.714;2023-04-09T12:23:04;-24238.25;;;15.10;nan
7105;BME280;3594;42.152;24.714;2023-04-09T12:25:35;-24232.22;;;14.88;nan
7105;BME280;3594;42.152;24.714;2023-04-09T12:28:02;-24242.03;;;15.24;nan
7105;BME280;3594;42.152;24.714;2023-04-09T12:30:28;-24241.06;;;15.20;nan
7105;BME280;3594;42.152;24.714;2023-04-09T12:32:54;-24242.31;;;15.25;nan
7105;BME280;3594;42.152;24.714;2023-04-09T12:35:21;-24237.00;;;15.06;nan
7105;BME280;3594;42.152;24.714;2023-04-09T12:37:47;-24242.72;;;15.26;nan
7105;BME280;3594;42.152;24.714;2023-04-09T12:40:13;-24241.19;;;15.21;nan
7105;BME280;3594;42.152;24.714;2023-04-09T12:42:40;-24258.69;;;15.84;nan
7105;BME280;3594;42.152;24.714;2023-04-09T12:45:10;-24252.25;;;15.61;nan
7105;BME280;3594;42.152;24.714;2023-04-09T12:47:36;-24249.59;;;15.51;nan
7105;BME280;3594;42.152;24.714;2023-04-09T12:50:05;-24254.34;;;15.68;nan
7105;BME280;3594;42.152;24.714;2023-04-09T12:52:31;-24259.13;;;15.85;nan
7105;BME280;3594;42.152;24.714;2023-04-09T12:54:56;-24255.06;;;15.71;nan
7105;BME280;3594;42.152;24.714;2023-04-09T12:57:22;-24236.44;;;15.03;nan
7105;BME280;3594;42.152;24.714;2023-04-09T12:59:47;-24244.56;;;15.33;nan
7105;BME280;3594;42.152;24.714;2023-04-09T13:02:13;-24253.78;;;15.66;nan
7105;BME280;3594;42.152;24.714;2023-04-09T13:04:38;-24248.06;;;15.45;nan
7105;BME280;3594;42.152;24.714;2023-04-09T13:07:03;-24237.69;;;15.08;nan
7105;BME280;3594;42.152;24.714;2023-04-09T13:09:29;-24246.38;;;15.39;nan
7105;BME280;3594;42.152;24.714;2023-04-09T13:11:58;-24249.16;;;15.49;nan
7105;BME280;3594;42.152;24.714;2023-04-09T13:14:23;-24237.41;;;15.07;nan
7105;BME280;3594;42.152;24.714;2023-04-09T13:16:48;-24241.47;;;15.22;nan
7105;BME280;3594;42.152;24.714;2023-04-09T13:19:16;-24239.94;;;15.16;nan
7105;BME280;3594;42.152;24.714;2023-04-09T13:21:43;-24233.91;;;14.94;nan
7105;BME280;3594;42.152;24.714;2023-04-09T13:24:08;-24248.47;;;15.47;nan
7105;BME280;3594;42.152;24.714;2023-04-09T13:26:33;-24251.00;;;15.56;nan
7105;BME280;3594;42.152;24.714;2023-04-09T13:28:59;-24250.03;;;15.53;nan
7105;BME280;3594;42.152;24.714;2023-04-09T13:31:26;-24265.28;;;16.08;nan
7105;BME280;3594;42.152;24.714;2023-04-09T13:33:51;-24251.56;;;15.58;nan
7105;BME280;3594;42.152;24.714;2023-04-09T13:36:16;-24243.16;;;15.28;nan
7105;BME280;3594;42.152;24.714;2023-04-09T13:38:42;-24249.16;;;15.49;nan
7105;BME280;3594;42.152;24.714;2023-04-09T13:41:08;-24249.59;;;15.51;nan
7105;BME280;3594;42.152;24.714;2023-04-09T13:43:33;-24254.06;;;15.67;nan